AFR1246 LFML-EGCC
Flight info
| Callsign | AFR1246 |
|---|---|
| Flight time | N/A |
| Altitude | 38000 |
| Route | ETREK DCT RUSIT DCT BULOL DCT IDAVO DCT BAGBI DCT SIZZA DCT LAULY DCT BRY DCT CLM DCT KOPOR DCT VESAN DCT RATUK DCT SOVAT L613 SANDY UN57 WELIN T420 ELVOS |
| Aircraft | B736/M-SDE2E3FGHIRWXY/LB1 |
Departure
| Time | 2026-05-07 16:04 |
|---|---|
| Airport | Marseille Provence Airport (LFML) |
Arrival
| Time | N/A |
|---|---|
| Airport | Manchester Airport (EGCC) |
| Time | Latitude | Longitude | Altitude | Speed | Heading |
|---|---|---|---|---|---|
| 2026-05-07 15:40 | 43.44169 | 5.21758 | 33 ft | 0 kts | 90° |
| 2026-05-07 15:50 | 43.44169 | 5.21752 | 33 ft | 3 kts | 90° |
| 2026-05-07 15:50 | 43.44169 | 5.21715 | 33 ft | 4 kts | 90° |
| 2026-05-07 15:51 | 43.44169 | 5.21702 | 32 ft | 0 kts | 90° |
| 2026-05-07 15:52 | 43.44169 | 5.21703 | 32 ft | 0 kts | 90° |
| 2026-05-07 15:54 | 43.44169 | 5.21710 | 33 ft | 2 kts | 91° |
| 2026-05-07 15:55 | 43.44166 | 5.21754 | 33 ft | 6 kts | 105° |
| 2026-05-07 15:55 | 43.44134 | 5.21786 | 35 ft | 6 kts | 166° |
| 2026-05-07 15:55 | 43.44090 | 5.21776 | 35 ft | 7 kts | 210° |
| 2026-05-07 15:55 | 43.44054 | 5.21736 | 35 ft | 7 kts | 220° |
| 2026-05-07 15:56 | 43.44019 | 5.21691 | 38 ft | 7 kts | 223° |
| 2026-05-07 15:56 | 43.43983 | 5.21645 | 40 ft | 8 kts | 223° |
| 2026-05-07 15:56 | 43.43932 | 5.21572 | 35 ft | 13 kts | 237° |
| 2026-05-07 15:56 | 43.43956 | 5.21436 | 28 ft | 17 kts | 313° |
| 2026-05-07 15:57 | 43.44033 | 5.21323 | 27 ft | 16 kts | 313° |
| 2026-05-07 15:57 | 43.44121 | 5.21205 | 26 ft | 18 kts | 315° |
| 2026-05-07 15:57 | 43.44204 | 5.21086 | 21 ft | 17 kts | 313° |
| 2026-05-07 15:57 | 43.44281 | 5.20951 | 19 ft | 18 kts | 302° |
| 2026-05-07 15:58 | 43.44290 | 5.20797 | 21 ft | 17 kts | 239° |
| 2026-05-07 15:58 | 43.44221 | 5.20670 | 26 ft | 16 kts | 241° |
| 2026-05-07 15:58 | 43.44198 | 5.20613 | 23 ft | 0 kts | 241° |
| 2026-05-07 16:02 | 43.44184 | 5.20577 | 20 ft | 11 kts | 242° |
| 2026-05-07 16:02 | 43.44144 | 5.20473 | 18 ft | 13 kts | 242° |
| 2026-05-07 16:02 | 43.44078 | 5.20396 | 14 ft | 13 kts | 180° |
| 2026-05-07 16:03 | 43.44043 | 5.20426 | 14 ft | 3 kts | 134° |
| 2026-05-07 16:03 | 43.43882 | 5.20649 | 18 ft | 64 kts | 135° |
| 2026-05-07 16:03 | 43.43441 | 5.21264 | 37 ft | 115 kts | 135° |
| 2026-05-07 16:03 | 43.42780 | 5.22165 | 112 ft | 147 kts | 134° |
| 2026-05-07 16:04 | 43.42138 | 5.23268 | 531 ft | 146 kts | 131° |
| 2026-05-07 16:04 | 43.41546 | 5.24482 | 842 ft | 164 kts | 107° |
| 2026-05-07 16:04 | 43.41678 | 5.26046 | 1302 ft | 164 kts | 74° |
| 2026-05-07 16:04 | 43.42008 | 5.27536 | 1805 ft | 168 kts | 61° |
| 2026-05-07 16:05 | 43.42841 | 5.28755 | 2416 ft | 191 kts | 34° |
| 2026-05-07 16:05 | 43.44148 | 5.29589 | 2814 ft | 225 kts | 8° |
| 2026-05-07 16:05 | 43.45741 | 5.29255 | 3429 ft | 242 kts | 340° |
| 2026-05-07 16:05 | 43.47416 | 5.28445 | 4124 ft | 262 kts | 340° |
| 2026-05-07 16:06 | 43.49153 | 5.27616 | 5201 ft | 266 kts | 341° |
| 2026-05-07 16:06 | 43.50927 | 5.26785 | 6295 ft | 271 kts | 341° |
| 2026-05-07 16:06 | 43.52732 | 5.25957 | 7275 ft | 277 kts | 341° |
| 2026-05-07 16:06 | 43.54580 | 5.25122 | 8321 ft | 281 kts | 341° |
| 2026-05-07 16:07 | 43.56450 | 5.24281 | 9327 ft | 286 kts | 340° |
| 2026-05-07 16:07 | 43.58371 | 5.23417 | 10272 ft | 293 kts | 340° |
| 2026-05-07 16:07 | 43.60385 | 5.22510 | 10692 ft | 319 kts | 340° |
| 2026-05-07 16:07 | 43.62588 | 5.21519 | 10942 ft | 346 kts | 340° |
| 2026-05-07 16:08 | 43.64932 | 5.20467 | 11558 ft | 360 kts | 340° |
| 2026-05-07 16:08 | 43.67324 | 5.19392 | 12472 ft | 362 kts | 340° |
| 2026-05-07 16:08 | 43.69731 | 5.18309 | 13419 ft | 365 kts | 340° |
| 2026-05-07 16:08 | 43.72161 | 5.17206 | 14206 ft | 371 kts | 340° |
| 2026-05-07 16:09 | 43.74619 | 5.16051 | 14974 ft | 375 kts | 339° |
| 2026-05-07 16:09 | 43.77105 | 5.14881 | 15767 ft | 379 kts | 341° |
| 2026-05-07 16:09 | 43.79719 | 5.14154 | 16460 ft | 388 kts | 352° |
| 2026-05-07 16:09 | 43.82388 | 5.13777 | 17203 ft | 392 kts | 353° |
| 2026-05-07 16:10 | 43.85120 | 5.13456 | 17955 ft | 397 kts | 354° |
| 2026-05-07 16:10 | 43.87888 | 5.13144 | 18640 ft | 401 kts | 354° |
| 2026-05-07 16:10 | 43.90685 | 5.12821 | 19294 ft | 405 kts | 353° |
| 2026-05-07 16:10 | 43.93507 | 5.12482 | 19964 ft | 408 kts | 353° |
| 2026-05-07 16:11 | 43.96351 | 5.12126 | 20624 ft | 412 kts | 352° |
| 2026-05-07 16:11 | 43.99219 | 5.11759 | 21288 ft | 415 kts | 352° |
| 2026-05-07 16:11 | 44.02112 | 5.11384 | 21926 ft | 420 kts | 352° |
| 2026-05-07 16:11 | 44.05030 | 5.11003 | 22566 ft | 423 kts | 352° |
| 2026-05-07 16:12 | 44.07976 | 5.10615 | 23193 ft | 427 kts | 352° |
| 2026-05-07 16:12 | 44.10956 | 5.10221 | 23769 ft | 431 kts | 351° |
| 2026-05-07 16:12 | 44.13958 | 5.09824 | 24266 ft | 435 kts | 351° |
| 2026-05-07 16:12 | 44.16989 | 5.09423 | 24773 ft | 439 kts | 351° |
| 2026-05-07 16:13 | 44.20044 | 5.09018 | 25274 ft | 443 kts | 351° |
| 2026-05-07 16:13 | 44.23100 | 5.08612 | 25709 ft | 448 kts | 351° |
| 2026-05-07 16:13 | 44.26218 | 5.08198 | 26194 ft | 452 kts | 351° |
| 2026-05-07 16:13 | 44.29358 | 5.07782 | 26699 ft | 455 kts | 350° |
| 2026-05-07 16:14 | 44.32511 | 5.07363 | 27165 ft | 458 kts | 350° |
| 2026-05-07 16:14 | 44.35697 | 5.06940 | 27608 ft | 462 kts | 350° |
| 2026-05-07 16:14 | 44.38916 | 5.06512 | 28053 ft | 465 kts | 350° |
| 2026-05-07 16:14 | 44.42144 | 5.06082 | 28495 ft | 469 kts | 350° |
| 2026-05-07 16:15 | 44.45403 | 5.05647 | 28929 ft | 472 kts | 350° |
| 2026-05-07 16:15 | 44.48690 | 5.05208 | 29367 ft | 475 kts | 350° |
| 2026-05-07 16:15 | 44.51998 | 5.04765 | 29756 ft | 479 kts | 350° |
| 2026-05-07 16:15 | 44.55322 | 5.04320 | 30127 ft | 482 kts | 350° |
| 2026-05-07 16:16 | 44.58658 | 5.03875 | 30600 ft | 481 kts | 350° |
| 2026-05-07 16:16 | 44.61975 | 5.03433 | 31140 ft | 477 kts | 350° |
| 2026-05-07 16:16 | 44.65284 | 5.02991 | 31594 ft | 477 kts | 350° |
| 2026-05-07 16:16 | 44.68580 | 5.02548 | 31994 ft | 477 kts | 350° |
| 2026-05-07 16:17 | 44.71890 | 5.02102 | 32422 ft | 477 kts | 350° |
| 2026-05-07 16:17 | 44.75187 | 5.01658 | 32908 ft | 475 kts | 350° |
| 2026-05-07 16:17 | 44.78473 | 5.01215 | 33395 ft | 473 kts | 350° |
| 2026-05-07 16:17 | 44.81762 | 5.00771 | 33824 ft | 473 kts | 350° |
| 2026-05-07 16:18 | 44.85025 | 5.00330 | 34179 ft | 473 kts | 350° |
| 2026-05-07 16:18 | 44.88295 | 4.99886 | 34510 ft | 472 kts | 350° |
| 2026-05-07 16:18 | 44.91574 | 4.99441 | 34825 ft | 472 kts | 350° |
| 2026-05-07 16:18 | 44.94847 | 4.98997 | 35131 ft | 472 kts | 350° |
| 2026-05-07 16:19 | 44.98121 | 4.98552 | 35425 ft | 472 kts | 350° |
| 2026-05-07 16:19 | 45.01416 | 4.98252 | 35710 ft | 476 kts | 357° |
| 2026-05-07 16:19 | 45.04681 | 4.98464 | 36010 ft | 478 kts | 0° |
| 2026-05-07 16:19 | 45.08034 | 4.98838 | 36320 ft | 478 kts | 1° |
| 2026-05-07 16:20 | 45.11301 | 4.99250 | 36572 ft | 479 kts | 1° |
| 2026-05-07 16:20 | 45.14629 | 4.99669 | 36833 ft | 479 kts | 1° |
| 2026-05-07 16:20 | 45.17937 | 5.00064 | 37128 ft | 478 kts | 1° |
| 2026-05-07 16:20 | 45.21254 | 5.00438 | 37416 ft | 478 kts | 1° |
| 2026-05-07 16:21 | 45.24571 | 5.00794 | 37672 ft | 478 kts | 0° |
| 2026-05-07 16:21 | 45.27884 | 5.01140 | 37930 ft | 478 kts | 1° |
| 2026-05-07 16:21 | 45.31214 | 5.01483 | 37961 ft | 482 kts | 0° |
| 2026-05-07 16:22 | 45.37902 | 5.02172 | 37971 ft | 480 kts | 1° |
| 2026-05-07 16:22 | 45.44524 | 5.02862 | 37967 ft | 475 kts | 1° |
| 2026-05-07 16:23 | 45.51106 | 5.03550 | 37991 ft | 473 kts | 1° |
| 2026-05-07 16:23 | 45.57682 | 5.04238 | 37992 ft | 473 kts | 1° |
| 2026-05-07 16:24 | 45.64240 | 5.04926 | 38001 ft | 472 kts | 1° |
| 2026-05-07 16:24 | 45.70795 | 5.05616 | 37994 ft | 473 kts | 1° |
| 2026-05-07 16:25 | 45.77357 | 5.06308 | 37997 ft | 473 kts | 1° |
| 2026-05-07 16:25 | 45.83888 | 5.06998 | 38001 ft | 474 kts | 1° |
| 2026-05-07 16:26 | 45.90523 | 5.07702 | 37998 ft | 475 kts | 1° |
| 2026-05-07 16:26 | 45.97079 | 5.08398 | 37990 ft | 476 kts | 1° |
| 2026-05-07 16:27 | 46.03661 | 5.08497 | 37994 ft | 470 kts | 348° |
| 2026-05-07 16:27 | 46.09897 | 5.06045 | 37999 ft | 462 kts | 332° |
| 2026-05-07 16:28 | 46.15739 | 5.02195 | 38006 ft | 461 kts | 331° |
| 2026-05-07 16:28 | 46.21591 | 4.98377 | 37990 ft | 462 kts | 332° |
| 2026-05-07 16:29 | 46.27490 | 4.94615 | 37992 ft | 462 kts | 332° |
| 2026-05-07 16:29 | 46.33340 | 4.90868 | 37994 ft | 462 kts | 332° |
| 2026-05-07 16:30 | 46.39217 | 4.87089 | 37990 ft | 462 kts | 333° |
| 2026-05-07 16:30 | 46.45095 | 4.83301 | 37996 ft | 462 kts | 333° |
| 2026-05-07 16:31 | 46.50018 | 4.80121 | 37995 ft | 462 kts | 333° |
| 2026-05-07 16:31 | 46.55843 | 4.76351 | 38001 ft | 462 kts | 333° |
| 2026-05-07 16:32 | 46.61712 | 4.72543 | 37996 ft | 462 kts | 333° |
| 2026-05-07 16:32 | 46.67616 | 4.68703 | 37994 ft | 461 kts | 333° |
| 2026-05-07 16:33 | 46.73429 | 4.64913 | 38000 ft | 461 kts | 333° |
| 2026-05-07 16:33 | 46.79279 | 4.61091 | 38002 ft | 461 kts | 333° |
| 2026-05-07 16:34 | 46.85144 | 4.57262 | 38001 ft | 461 kts | 333° |
| 2026-05-07 16:34 | 46.91009 | 4.53449 | 37998 ft | 461 kts | 333° |
| 2026-05-07 16:35 | 46.96873 | 4.49628 | 38003 ft | 461 kts | 333° |
| 2026-05-07 16:35 | 47.02702 | 4.45818 | 38000 ft | 461 kts | 333° |
| 2026-05-07 16:36 | 47.08571 | 4.41971 | 38006 ft | 462 kts | 333° |
| 2026-05-07 16:36 | 47.14445 | 4.38111 | 38003 ft | 462 kts | 333° |
| 2026-05-07 16:37 | 47.20316 | 4.34243 | 37999 ft | 462 kts | 333° |
| 2026-05-07 16:37 | 47.26186 | 4.30367 | 38004 ft | 462 kts | 333° |
| 2026-05-07 16:38 | 47.32050 | 4.26485 | 38008 ft | 462 kts | 333° |
| 2026-05-07 16:38 | 47.37879 | 4.22617 | 38006 ft | 462 kts | 333° |
| 2026-05-07 16:39 | 47.43758 | 4.18706 | 38006 ft | 462 kts | 333° |
| 2026-05-07 16:39 | 47.49625 | 4.14793 | 38012 ft | 462 kts | 333° |
| 2026-05-07 16:40 | 47.55478 | 4.10882 | 38013 ft | 462 kts | 333° |
| 2026-05-07 16:40 | 47.61359 | 4.06955 | 38011 ft | 463 kts | 333° |
| 2026-05-07 16:41 | 47.67232 | 4.03026 | 38016 ft | 463 kts | 333° |
| 2026-05-07 16:41 | 47.73094 | 3.99093 | 38008 ft | 463 kts | 333° |
| 2026-05-07 16:42 | 47.78965 | 3.95144 | 38017 ft | 463 kts | 333° |
| 2026-05-07 16:42 | 47.84829 | 3.91188 | 38021 ft | 463 kts | 333° |
| 2026-05-07 16:43 | 47.90655 | 3.87249 | 38017 ft | 463 kts | 333° |
| 2026-05-07 16:43 | 47.96521 | 3.83273 | 38015 ft | 463 kts | 333° |
| 2026-05-07 16:44 | 48.02376 | 3.79293 | 38021 ft | 462 kts | 333° |
| 2026-05-07 16:44 | 48.08224 | 3.75309 | 38028 ft | 462 kts | 333° |
| 2026-05-07 16:45 | 48.14022 | 3.71173 | 38006 ft | 460 kts | 327° |
| 2026-05-07 16:45 | 48.18960 | 3.65216 | 38033 ft | 455 kts | 311° |
| 2026-05-07 16:46 | 48.23215 | 3.58184 | 38029 ft | 455 kts | 310° |